sensor_id;sensor_type;location;lat;lon;timestamp;temperature;humidity
40636;DHT22;26642;55.766;37.828;2024-02-15T00:00:16;4.10;58.20
40636;DHT22;26642;55.766;37.828;2024-02-15T00:02:43;4.10;58.30
40636;DHT22;26642;55.766;37.828;2024-02-15T00:05:11;4.10;58.40
40636;DHT22;26642;55.766;37.828;2024-02-15T00:07:38;4.10;58.40
40636;DHT22;26642;55.766;37.828;2024-02-15T00:10:05;4.10;58.40
40636;DHT22;26642;55.766;37.828;2024-02-15T00:12:31;4.10;58.50
40636;DHT22;26642;55.766;37.828;2024-02-15T00:14:57;4.10;58.40
40636;DHT22;26642;55.766;37.828;2024-02-15T00:17:28;4.10;58.50
40636;DHT22;26642;55.766;37.828;2024-02-15T00:19:55;4.10;58.80
40636;DHT22;26642;55.766;37.828;2024-02-15T00:22:21;4.10;58.50
40636;DHT22;26642;55.766;37.828;2024-02-15T00:24:47;4.10;58.40
40636;DHT22;26642;55.766;37.828;2024-02-15T00:27:16;4.00;58.40
40636;DHT22;26642;55.766;37.828;2024-02-15T00:29:42;4.00;58.30
40636;DHT22;26642;55.766;37.828;2024-02-15T00:32:11;4.00;58.50
40636;DHT22;26642;55.766;37.828;2024-02-15T00:34:37;4.00;58.50
40636;DHT22;26642;55.766;37.828;2024-02-15T00:37:07;4.00;58.60
40636;DHT22;26642;55.766;37.828;2024-02-15T00:39:33;4.00;58.70
40636;DHT22;26642;55.766;37.828;2024-02-15T00:41:59;3.90;58.40
40636;DHT22;26642;55.766;37.828;2024-02-15T00:44:28;3.90;58.60
40636;DHT22;26642;55.766;37.828;2024-02-15T00:46:54;4.00;58.50
40636;DHT22;26642;55.766;37.828;2024-02-15T00:49:19;3.90;58.40
40636;DHT22;26642;55.766;37.828;2024-02-15T00:51:48;3.90;58.50
40636;DHT22;26642;55.766;37.828;2024-02-15T00:54:15;3.90;58.40
40636;DHT22;26642;55.766;37.828;2024-02-15T00:56:42;3.90;58.20
40636;DHT22;26642;55.766;37.828;2024-02-15T00:59:08;3.90;58.50
40636;DHT22;26642;55.766;37.828;2024-02-15T01:01:34;3.90;58.60
40636;DHT22;26642;55.766;37.828;2024-02-15T01:04:02;3.90;58.60
40636;DHT22;26642;55.766;37.828;2024-02-15T01:06:28;3.90;58.40
40636;DHT22;26642;55.766;37.828;2024-02-15T01:08:54;3.90;58.30
40636;DHT22;26642;55.766;37.828;2024-02-15T01:11:20;3.80;58.10
40636;DHT22;26642;55.766;37.828;2024-02-15T01:13:46;3.90;58.10
40636;DHT22;26642;55.766;37.828;2024-02-15T01:16:12;3.90;58.00
40636;DHT22;26642;55.766;37.828;2024-02-15T01:18:38;3.90;57.80
40636;DHT22;26642;55.766;37.828;2024-02-15T01:21:04;3.90;57.70
40636;DHT22;26642;55.766;37.828;2024-02-15T01:23:30;3.80;57.60
40636;DHT22;26642;55.766;37.828;2024-02-15T01:25:56;3.80;57.70
40636;DHT22;26642;55.766;37.828;2024-02-15T01:28:23;3.80;57.90
40636;DHT22;26642;55.766;37.828;2024-02-15T01:30:49;3.80;58.00
40636;DHT22;26642;55.766;37.828;2024-02-15T01:33:15;3.90;57.90
40636;DHT22;26642;55.766;37.828;2024-02-15T01:35:43;3.80;57.90
40636;DHT22;26642;55.766;37.828;2024-02-15T01:38:09;3.80;58.00
40636;DHT22;26642;55.766;37.828;2024-02-15T01:40:36;3.80;58.10
40636;DHT22;26642;55.766;37.828;2024-02-15T01:43:03;3.80;58.10
40636;DHT22;26642;55.766;37.828;2024-02-15T01:45:29;3.80;58.10
40636;DHT22;26642;55.766;37.828;2024-02-15T01:47:56;3.80;57.90
40636;DHT22;26642;55.766;37.828;2024-02-15T01:50:22;3.80;57.70
40636;DHT22;26642;55.766;37.828;2024-02-15T01:52:54;3.80;57.90
40636;DHT22;26642;55.766;37.828;2024-02-15T01:55:21;3.80;57.80
40636;DHT22;26642;55.766;37.828;2024-02-15T01:57:48;3.80;57.90
40636;DHT22;26642;55.766;37.828;2024-02-15T02:00:23;3.70;57.80
40636;DHT22;26642;55.766;37.828;2024-02-15T02:02:53;3.80;58.00
40636;DHT22;26642;55.766;37.828;2024-02-15T02:05:27;3.70;57.50
40636;DHT22;26642;55.766;37.828;2024-02-15T02:07:54;3.70;57.40
40636;DHT22;26642;55.766;37.828;2024-02-15T02:10:21;3.70;58.20
40636;DHT22;26642;55.766;37.828;2024-02-15T02:12:47;3.70;57.60
40636;DHT22;26642;55.766;37.828;2024-02-15T02:15:13;3.70;57.60
40636;DHT22;26642;55.766;37.828;2024-02-15T02:17:39;3.70;57.70
40636;DHT22;26642;55.766;37.828;2024-02-15T02:20:06;3.70;57.60
40636;DHT22;26642;55.766;37.828;2024-02-15T02:22:35;3.70;57.60
40636;DHT22;26642;55.766;37.828;2024-02-15T02:25:07;3.70;57.70
40636;DHT22;26642;55.766;37.828;2024-02-15T02:27:35;3.70;57.80
40636;DHT22;26642;55.766;37.828;2024-02-15T02:30:15;3.70;57.70
40636;DHT22;26642;55.766;37.828;2024-02-15T02:32:43;3.70;57.60
40636;DHT22;26642;55.766;37.828;2024-02-15T02:35:09;3.70;57.40
40636;DHT22;26642;55.766;37.828;2024-02-15T02:37:39;3.70;57.50
40636;DHT22;26642;55.766;37.828;2024-02-15T02:40:08;3.70;57.40
40636;DHT22;26642;55.766;37.828;2024-02-15T02:42:54;3.80;57.40
40636;DHT22;26642;55.766;37.828;2024-02-15T02:45:26;3.70;57.20
40636;DHT22;26642;55.766;37.828;2024-02-15T02:47:53;3.70;57.30
40636;DHT22;26642;55.766;37.828;2024-02-15T02:50:22;3.70;57.40
40636;DHT22;26642;55.766;37.828;2024-02-15T02:52:49;3.70;57.40
40636;DHT22;26642;55.766;37.828;2024-02-15T02:55:15;3.70;57.40
40636;DHT22;26642;55.766;37.828;2024-02-15T02:57:42;3.70;57.50
40636;DHT22;26642;55.766;37.828;2024-02-15T03:00:10;3.70;57.80
40636;DHT22;26642;55.766;37.828;2024-02-15T03:02:51;3.70;57.40
40636;DHT22;26642;55.766;37.828;2024-02-15T03:05:17;3.70;57.30
40636;DHT22;26642;55.766;37.828;2024-02-15T03:07:46;3.70;57.40
40636;DHT22;26642;55.766;37.828;2024-02-15T03:10:12;3.70;57.20
40636;DHT22;26642;55.766;37.828;2024-02-15T03:12:39;3.70;57.30
40636;DHT22;26642;55.766;37.828;2024-02-15T03:15:06;3.70;57.60
40636;DHT22;26642;55.766;37.828;2024-02-15T03:17:39;3.70;57.30
40636;DHT22;26642;55.766;37.828;2024-02-15T03:20:07;3.70;57.20
40636;DHT22;26642;55.766;37.828;2024-02-15T03:23:00;3.60;57.30
40636;DHT22;26642;55.766;37.828;2024-02-15T03:25:28;3.70;57.40
40636;DHT22;26642;55.766;37.828;2024-02-15T03:27:58;3.70;57.30
40636;DHT22;26642;55.766;37.828;2024-02-15T03:30:26;3.70;57.30
40636;DHT22;26642;55.766;37.828;2024-02-15T03:32:53;3.70;57.10
40636;DHT22;26642;55.766;37.828;2024-02-15T03:35:21;3.70;57.20
40636;DHT22;26642;55.766;37.828;2024-02-15T03:37:48;3.70;57.00
40636;DHT22;26642;55.766;37.828;2024-02-15T03:40:21;3.70;56.90
40636;DHT22;26642;55.766;37.828;2024-02-15T03:42:47;3.70;56.90
40636;DHT22;26642;55.766;37.828;2024-02-15T03:45:15;3.70;56.80
40636;DHT22;26642;55.766;37.828;2024-02-15T03:47:41;3.70;56.80
40636;DHT22;26642;55.766;37.828;2024-02-15T03:50:08;3.70;57.00
40636;DHT22;26642;55.766;37.828;2024-02-15T03:52:38;3.70;56.90
40636;DHT22;26642;55.766;37.828;2024-02-15T03:55:05;3.70;56.80
40636;DHT22;26642;55.766;37.828;2024-02-15T03:57:33;3.70;56.90
40636;DHT22;26642;55.766;37.828;2024-02-15T04:00:00;3.70;56.80
40636;DHT22;26642;55.766;37.828;2024-02-15T04:02:26;3.70;57.00
40636;DHT22;26642;55.766;37.828;2024-02-15T04:04:53;3.70;56.70
40636;DHT22;26642;55.766;37.828;2024-02-15T04:07:21;3.70;56.60
40636;DHT22;26642;55.766;37.828;2024-02-15T04:09:48;3.70;56.60
40636;DHT22;26642;55.766;37.828;2024-02-15T04:12:14;3.70;56.60
40636;DHT22;26642;55.766;37.828;2024-02-15T04:14:41;3.70;56.40
40636;DHT22;26642;55.766;37.828;2024-02-15T04:17:07;3.70;56.30
40636;DHT22;26642;55.766;37.828;2024-02-15T04:19:33;3.70;56.50
40636;DHT22;26642;55.766;37.828;2024-02-15T04:22:00;3.70;56.30
40636;DHT22;26642;55.766;37.828;2024-02-15T04:24:34;3.70;56.30
40636;DHT22;26642;55.766;37.828;2024-02-15T04:27:00;3.60;56.10
40636;DHT22;26642;55.766;37.828;2024-02-15T04:29:26;3.70;56.20
40636;DHT22;26642;55.766;37.828;2024-02-15T04:31:52;3.70;56.10
40636;DHT22;26642;55.766;37.828;2024-02-15T04:34:20;3.70;55.90
40636;DHT22;26642;55.766;37.828;2024-02-15T04:36:47;3.70;55.80
40636;DHT22;26642;55.766;37.828;2024-02-15T04:39:17;3.70;55.70
40636;DHT22;26642;55.766;37.828;2024-02-15T04:41:53;3.70;55.50
40636;DHT22;26642;55.766;37.828;2024-02-15T04:44:21;3.70;55.50
40636;DHT22;26642;55.766;37.828;2024-02-15T04:46:48;3.70;55.30
40636;DHT22;26642;55.766;37.828;2024-02-15T04:49:17;3.70;55.20
40636;DHT22;26642;55.766;37.828;2024-02-15T04:51:44;3.70;55.20
40636;DHT22;26642;55.766;37.828;2024-02-15T04:54:11;3.70;55.40
40636;DHT22;26642;55.766;37.828;2024-02-15T04:56:40;3.70;55.40
40636;DHT22;26642;55.766;37.828;2024-02-15T04:59:10;3.70;55.30
40636;DHT22;26642;55.766;37.828;2024-02-15T05:01:41;3.70;55.50
40636;DHT22;26642;55.766;37.828;2024-02-15T05:04:11;3.70;55.70
40636;DHT22;26642;55.766;37.828;2024-02-15T05:06:39;3.70;56.10
40636;DHT22;26642;55.766;37.828;2024-02-15T05:09:06;3.60;56.20
40636;DHT22;26642;55.766;37.828;2024-02-15T05:11:40;3.60;56.60
40636;DHT22;26642;55.766;37.828;2024-02-15T05:14:07;3.70;57.00
40636;DHT22;26642;55.766;37.828;2024-02-15T05:16:34;3.60;57.40
40636;DHT22;26642;55.766;37.828;2024-02-15T05:19:00;3.70;57.40
40636;DHT22;26642;55.766;37.828;2024-02-15T05:21:28;3.70;57.60
40636;DHT22;26642;55.766;37.828;2024-02-15T05:23:55;3.60;57.60
40636;DHT22;26642;55.766;37.828;2024-02-15T05:26:23;3.70;57.80
40636;DHT22;26642;55.766;37.828;2024-02-15T05:28:49;3.70;57.80
40636;DHT22;26642;55.766;37.828;2024-02-15T05:31:18;3.70;57.80
40636;DHT22;26642;55.766;37.828;2024-02-15T05:33:46;3.70;58.00
40636;DHT22;26642;55.766;37.828;2024-02-15T05:36:14;3.70;57.80
40636;DHT22;26642;55.766;37.828;2024-02-15T05:38:41;3.70;57.80
40636;DHT22;26642;55.766;37.828;2024-02-15T05:41:07;3.70;57.60
40636;DHT22;26642;55.766;37.828;2024-02-15T05:46:19;3.70;57.50
40636;DHT22;26642;55.766;37.828;2024-02-15T05:48:47;3.70;57.40
40636;DHT22;26642;55.766;37.828;2024-02-15T05:51:13;3.70;57.30
40636;DHT22;26642;55.766;37.828;2024-02-15T05:53:39;3.70;57.00
40636;DHT22;26642;55.766;37.828;2024-02-15T05:56:07;3.70;57.60
40636;DHT22;26642;55.766;37.828;2024-02-15T05:58:34;3.70;56.80
40636;DHT22;26642;55.766;37.828;2024-02-15T06:01:02;3.70;56.70
40636;DHT22;26642;55.766;37.828;2024-02-15T06:03:31;3.70;56.70
40636;DHT22;26642;55.766;37.828;2024-02-15T06:05:59;3.70;56.40
40636;DHT22;26642;55.766;37.828;2024-02-15T06:08:28;3.70;56.40
40636;DHT22;26642;55.766;37.828;2024-02-15T06:10:55;3.70;56.30
40636;DHT22;26642;55.766;37.828;2024-02-15T06:13:26;3.70;56.50
40636;DHT22;26642;55.766;37.828;2024-02-15T06:15:52;3.70;56.60
40636;DHT22;26642;55.766;37.828;2024-02-15T06:18:25;3.70;56.30
40636;DHT22;26642;55.766;37.828;2024-02-15T06:20:52;3.70;56.20
40636;DHT22;26642;55.766;37.828;2024-02-15T06:23:18;3.70;56.30
40636;DHT22;26642;55.766;37.828;2024-02-15T06:25:50;3.70;56.30
40636;DHT22;26642;55.766;37.828;2024-02-15T06:28:17;3.70;56.30
40636;DHT22;26642;55.766;37.828;2024-02-15T06:31:09;3.70;56.20
40636;DHT22;26642;55.766;37.828;2024-02-15T06:33:54;3.70;56.10
40636;DHT22;26642;55.766;37.828;2024-02-15T06:36:50;3.70;56.00
40636;DHT22;26642;55.766;37.828;2024-02-15T06:39:35;3.80;55.90
40636;DHT22;26642;55.766;37.828;2024-02-15T06:42:04;3.80;55.80
40636;DHT22;26642;55.766;37.828;2024-02-15T06:44:32;3.80;55.70
40636;DHT22;26642;55.766;37.828;2024-02-15T06:46:58;3.80;55.70
40636;DHT22;26642;55.766;37.828;2024-02-15T06:49:25;3.80;55.80
40636;DHT22;26642;55.766;37.828;2024-02-15T06:51:52;3.90;60.70
40636;DHT22;26642;55.766;37.828;2024-02-15T06:54:18;4.00;60.50
40636;DHT22;26642;55.766;37.828;2024-02-15T06:56:45;4.10;59.90
40636;DHT22;26642;55.766;37.828;2024-02-15T06:59:14;4.10;58.90
40636;DHT22;26642;55.766;37.828;2024-02-15T07:01:41;4.10;58.00
40636;DHT22;26642;55.766;37.828;2024-02-15T07:04:08;4.20;57.50
40636;DHT22;26642;55.766;37.828;2024-02-15T07:06:38;4.10;56.90
40636;DHT22;26642;55.766;37.828;2024-02-15T07:09:05;4.10;56.60
40636;DHT22;26642;55.766;37.828;2024-02-15T07:11:35;4.10;56.40
40636;DHT22;26642;55.766;37.828;2024-02-15T07:14:02;4.10;56.30
40636;DHT22;26642;55.766;37.828;2024-02-15T07:16:30;4.10;56.20
40636;DHT22;26642;55.766;37.828;2024-02-15T07:18:56;4.10;56.10
40636;DHT22;26642;55.766;37.828;2024-02-15T07:21:22;4.10;56.00
40636;DHT22;26642;55.766;37.828;2024-02-15T07:23:53;4.10;56.00
40636;DHT22;26642;55.766;37.828;2024-02-15T07:26:21;4.10;56.00
40636;DHT22;26642;55.766;37.828;2024-02-15T07:28:54;4.10;56.00
40636;DHT22;26642;55.766;37.828;2024-02-15T07:31:20;4.10;56.00
40636;DHT22;26642;55.766;37.828;2024-02-15T07:33:53;4.10;56.00
40636;DHT22;26642;55.766;37.828;2024-02-15T07:36:20;4.10;56.20
40636;DHT22;26642;55.766;37.828;2024-02-15T07:38:50;4.20;56.20
40636;DHT22;26642;55.766;37.828;2024-02-15T07:41:23;4.20;56.10
40636;DHT22;26642;55.766;37.828;2024-02-15T07:43:50;4.30;56.20
40636;DHT22;26642;55.766;37.828;2024-02-15T07:46:16;4.20;56.00
40636;DHT22;26642;55.766;37.828;2024-02-15T07:48:43;4.20;56.00
40636;DHT22;26642;55.766;37.828;2024-02-15T07:51:14;4.30;55.90
40636;DHT22;26642;55.766;37.828;2024-02-15T07:53:46;4.30;55.80
40636;DHT22;26642;55.766;37.828;2024-02-15T07:56:14;4.30;55.70
40636;DHT22;26642;55.766;37.828;2024-02-15T07:58:42;4.30;55.60
40636;DHT22;26642;55.766;37.828;2024-02-15T08:01:10;4.30;55.50
40636;DHT22;26642;55.766;37.828;2024-02-15T08:03:36;4.40;55.40
40636;DHT22;26642;55.766;37.828;2024-02-15T08:06:03;4.40;55.50
40636;DHT22;26642;55.766;37.828;2024-02-15T08:08:35;4.40;55.40
40636;DHT22;26642;55.766;37.828;2024-02-15T08:11:02;4.40;55.30
40636;DHT22;26642;55.766;37.828;2024-02-15T08:13:29;4.40;55.30
40636;DHT22;26642;55.766;37.828;2024-02-15T08:18:43;4.50;55.20
40636;DHT22;26642;55.766;37.828;2024-02-15T08:21:12;4.50;55.10
40636;DHT22;26642;55.766;37.828;2024-02-15T08:23:38;4.50;54.70
40636;DHT22;26642;55.766;37.828;2024-02-15T08:26:05;4.50;54.90
40636;DHT22;26642;55.766;37.828;2024-02-15T08:28:31;4.50;54.80
40636;DHT22;26642;55.766;37.828;2024-02-15T08:30:57;4.50;54.80
40636;DHT22;26642;55.766;37.828;2024-02-15T08:33:26;4.60;54.80
40636;DHT22;26642;55.766;37.828;2024-02-15T08:35:54;4.50;54.60
40636;DHT22;26642;55.766;37.828;2024-02-15T08:38:23;4.60;54.60
40636;DHT22;26642;55.766;37.828;2024-02-15T08:40:50;4.60;54.90
40636;DHT22;26642;55.766;37.828;2024-02-15T08:43:16;4.60;54.70
40636;DHT22;26642;55.766;37.828;2024-02-15T08:45:42;4.60;54.70
40636;DHT22;26642;55.766;37.828;2024-02-15T08:48:09;4.60;54.90
40636;DHT22;26642;55.766;37.828;2024-02-15T08:50:35;4.60;54.90
40636;DHT22;26642;55.766;37.828;2024-02-15T08:53:02;4.70;55.10
40636;DHT22;26642;55.766;37.828;2024-02-15T08:55:32;4.70;55.00
40636;DHT22;26642;55.766;37.828;2024-02-15T08:58:01;4.70;55.10
40636;DHT22;26642;55.766;37.828;2024-02-15T09:00:28;4.70;54.80
40636;DHT22;26642;55.766;37.828;2024-02-15T09:02:54;4.70;54.80
40636;DHT22;26642;55.766;37.828;2024-02-15T09:05:22;4.70;54.70
40636;DHT22;26642;55.766;37.828;2024-02-15T09:07:48;4.70;54.80
40636;DHT22;26642;55.766;37.828;2024-02-15T09:10:17;4.70;55.00
40636;DHT22;26642;55.766;37.828;2024-02-15T09:12:44;4.70;55.00
40636;DHT22;26642;55.766;37.828;2024-02-15T09:15:13;4.70;55.00
40636;DHT22;26642;55.766;37.828;2024-02-15T09:17:40;4.70;55.00
40636;DHT22;26642;55.766;37.828;2024-02-15T09:20:07;4.70;55.00
40636;DHT22;26642;55.766;37.828;2024-02-15T09:22:51;4.80;55.30
40636;DHT22;26642;55.766;37.828;2024-02-15T09:25:18;4.80;55.30
40636;DHT22;26642;55.766;37.828;2024-02-15T09:27:45;4.70;55.20
40636;DHT22;26642;55.766;37.828;2024-02-15T09:30:14;4.70;55.10
40636;DHT22;26642;55.766;37.828;2024-02-15T09:33:00;4.80;55.10
40636;DHT22;26642;55.766;37.828;2024-02-15T09:35:26;4.80;55.00
40636;DHT22;26642;55.766;37.828;2024-02-15T09:37:52;4.70;54.80
40636;DHT22;26642;55.766;37.828;2024-02-15T09:40:21;4.70;54.70
40636;DHT22;26642;55.766;37.828;2024-02-15T09:42:47;4.70;54.90
40636;DHT22;26642;55.766;37.828;2024-02-15T09:45:14;4.80;55.00
40636;DHT22;26642;55.766;37.828;2024-02-15T09:47:44;4.80;54.70
40636;DHT22;26642;55.766;37.828;2024-02-15T09:50:12;4.70;54.70
40636;DHT22;26642;55.766;37.828;2024-02-15T09:52:42;4.70;54.70
40636;DHT22;26642;55.766;37.828;2024-02-15T09:55:10;4.70;54.70
40636;DHT22;26642;55.766;37.828;2024-02-15T09:57:43;4.70;54.80
40636;DHT22;26642;55.766;37.828;2024-02-15T10:00:10;4.70;54.70
40636;DHT22;26642;55.766;37.828;2024-02-15T10:02:41;4.70;55.20
40636;DHT22;26642;55.766;37.828;2024-02-15T10:05:10;4.70;55.00
40636;DHT22;26642;55.766;37.828;2024-02-15T10:07:40;4.70;55.00
40636;DHT22;26642;55.766;37.828;2024-02-15T10:10:19;4.70;55.20
40636;DHT22;26642;55.766;37.828;2024-02-15T10:12:46;4.70;55.10
40636;DHT22;26642;55.766;37.828;2024-02-15T10:15:33;4.70;54.90
40636;DHT22;26642;55.766;37.828;2024-02-15T10:18:08;4.70;55.00
40636;DHT22;26642;55.766;37.828;2024-02-15T10:20:37;4.70;54.90
40636;DHT22;26642;55.766;37.828;2024-02-15T10:25:37;4.70;54.80
40636;DHT22;26642;55.766;37.828;2024-02-15T10:28:07;4.70;54.80
40636;DHT22;26642;55.766;37.828;2024-02-15T10:30:38;4.70;54.80
40636;DHT22;26642;55.766;37.828;2024-02-15T10:33:05;4.70;54.90
40636;DHT22;26642;55.766;37.828;2024-02-15T10:35:33;4.70;54.90
40636;DHT22;26642;55.766;37.828;2024-02-15T10:38:11;4.70;54.70
40636;DHT22;26642;55.766;37.828;2024-02-15T10:40:40;4.70;54.60
40636;DHT22;26642;55.766;37.828;2024-02-15T10:43:10;4.60;54.60
40636;DHT22;26642;55.766;37.828;2024-02-15T10:45:39;4.60;54.60
40636;DHT22;26642;55.766;37.828;2024-02-15T10:48:08;4.60;54.70
40636;DHT22;26642;55.766;37.828;2024-02-15T10:50:34;4.60;54.60
40636;DHT22;26642;55.766;37.828;2024-02-15T10:53:30;4.60;54.70
40636;DHT22;26642;55.766;37.828;2024-02-15T10:56:28;4.60;54.50
40636;DHT22;26642;55.766;37.828;2024-02-15T10:59:14;4.60;54.20
40636;DHT22;26642;55.766;37.828;2024-02-15T11:01:43;4.60;54.30
40636;DHT22;26642;55.766;37.828;2024-02-15T11:04:14;4.60;54.30
40636;DHT22;26642;55.766;37.828;2024-02-15T11:06:43;4.60;54.50
40636;DHT22;26642;55.766;37.828;2024-02-15T11:09:11;4.60;54.80
40636;DHT22;26642;55.766;37.828;2024-02-15T11:11:41;4.60;54.60
40636;DHT22;26642;55.766;37.828;2024-02-15T11:14:30;4.60;54.60
40636;DHT22;26642;55.766;37.828;2024-02-15T11:17:01;4.60;54.60
40636;DHT22;26642;55.766;37.828;2024-02-15T11:22:01;4.60;54.30
40636;DHT22;26642;55.766;37.828;2024-02-15T11:24:32;4.60;54.60
40636;DHT22;26642;55.766;37.828;2024-02-15T11:27:02;4.60;54.60
40636;DHT22;26642;55.766;37.828;2024-02-15T11:29:49;4.70;54.70
40636;DHT22;26642;55.766;37.828;2024-02-15T11:32:36;4.60;54.70
40636;DHT22;26642;55.766;37.828;2024-02-15T11:35:18;4.60;54.60
40636;DHT22;26642;55.766;37.828;2024-02-15T11:43:08;4.70;54.40
40636;DHT22;26642;55.766;37.828;2024-02-15T11:45:37;4.60;54.60
40636;DHT22;26642;55.766;37.828;2024-02-15T11:48:11;4.60;54.30
40636;DHT22;26642;55.766;37.828;2024-02-15T11:50:38;4.60;54.30
40636;DHT22;26642;55.766;37.828;2024-02-15T11:53:06;4.60;54.50
40636;DHT22;26642;55.766;37.828;2024-02-15T11:55:36;4.60;54.40
40636;DHT22;26642;55.766;37.828;2024-02-15T11:58:04;4.60;54.10
40636;DHT22;26642;55.766;37.828;2024-02-15T12:00:34;4.60;54.50
40636;DHT22;26642;55.766;37.828;2024-02-15T12:03:19;4.60;54.40
40636;DHT22;26642;55.766;37.828;2024-02-15T12:06:04;4.60;54.30
40636;DHT22;26642;55.766;37.828;2024-02-15T12:08:51;4.60;54.30
40636;DHT22;26642;55.766;37.828;2024-02-15T12:11:38;4.60;54.50
40636;DHT22;26642;55.766;37.828;2024-02-15T12:14:23;4.50;54.20
40636;DHT22;26642;55.766;37.828;2024-02-15T12:17:10;4.60;54.30
40636;DHT22;26642;55.766;37.828;2024-02-15T12:19:56;4.50;54.60
40636;DHT22;26642;55.766;37.828;2024-02-15T12:22:25;4.60;54.60
40636;DHT22;26642;55.766;37.828;2024-02-15T12:24:59;4.50;54.30
40636;DHT22;26642;55.766;37.828;2024-02-15T12:27:26;4.50;54.20
40636;DHT22;26642;55.766;37.828;2024-02-15T12:29:56;4.50;54.20
40636;DHT22;26642;55.766;37.828;2024-02-15T12:32:27;4.60;54.60
40636;DHT22;26642;55.766;37.828;2024-02-15T12:35:10;4.60;54.90
40636;DHT22;26642;55.766;37.828;2024-02-15T12:38:03;4.50;54.60
40636;DHT22;26642;55.766;37.828;2024-02-15T12:40:35;4.50;54.40
40636;DHT22;26642;55.766;37.828;2024-02-15T12:43:04;4.50;54.70
40636;DHT22;26642;55.766;37.828;2024-02-15T12:45:32;4.50;54.50
40636;DHT22;26642;55.766;37.828;2024-02-15T12:48:06;4.50;54.60
40636;DHT22;26642;55.766;37.828;2024-02-15T12:50:33;4.50;55.10
40636;DHT22;26642;55.766;37.828;2024-02-15T12:53:00;4.50;55.10
40636;DHT22;26642;55.766;37.828;2024-02-15T12:55:32;4.50;55.40
40636;DHT22;26642;55.766;37.828;2024-02-15T12:58:01;4.50;55.30
40636;DHT22;26642;55.766;37.828;2024-02-15T13:00:30;4.50;55.00
40636;DHT22;26642;55.766;37.828;2024-02-15T13:03:03;4.70;59.90
40636;DHT22;26642;55.766;37.828;2024-02-15T13:05:30;4.90;62.60
40636;DHT22;26642;55.766;37.828;2024-02-15T13:07:57;5.10;61.20
40636;DHT22;26642;55.766;37.828;2024-02-15T13:10:36;5.10;59.50
40636;DHT22;26642;55.766;37.828;2024-02-15T13:13:04;5.10;58.10
40636;DHT22;26642;55.766;37.828;2024-02-15T13:15:31;5.20;58.20
40636;DHT22;26642;55.766;37.828;2024-02-15T13:18:02;5.30;61.40
40636;DHT22;26642;55.766;37.828;2024-02-15T13:20:31;5.50;62.30
40636;DHT22;26642;55.766;37.828;2024-02-15T13:23:02;5.60;61.60
40636;DHT22;26642;55.766;37.828;2024-02-15T13:25:38;5.60;59.80
40636;DHT22;26642;55.766;37.828;2024-02-15T13:28:05;5.60;58.30
40636;DHT22;26642;55.766;37.828;2024-02-15T13:30:32;5.60;57.30
40636;DHT22;26642;55.766;37.828;2024-02-15T13:32:58;5.60;56.80
40636;DHT22;26642;55.766;37.828;2024-02-15T13:35:25;5.50;56.20
40636;DHT22;26642;55.766;37.828;2024-02-15T13:37:55;5.50;55.90
40636;DHT22;26642;55.766;37.828;2024-02-15T13:40:27;5.50;55.80
40636;DHT22;26642;55.766;37.828;2024-02-15T13:42:56;5.50;55.60
40636;DHT22;26642;55.766;37.828;2024-02-15T13:45:31;5.40;55.70
40636;DHT22;26642;55.766;37.828;2024-02-15T13:48:03;5.40;55.60
40636;DHT22;26642;55.766;37.828;2024-02-15T13:50:33;5.40;55.40
40636;DHT22;26642;55.766;37.828;2024-02-15T13:53:00;5.40;55.70
40636;DHT22;26642;55.766;37.828;2024-02-15T13:55:26;5.40;55.50
40636;DHT22;26642;55.766;37.828;2024-02-15T13:57:53;5.30;55.50
40636;DHT22;26642;55.766;37.828;2024-02-15T14:00:21;5.30;55.30
40636;DHT22;26642;55.766;37.828;2024-02-15T14:02:51;5.30;55.10
40636;DHT22;26642;55.766;37.828;2024-02-15T14:05:20;5.30;55.30
40636;DHT22;26642;55.766;37.828;2024-02-15T14:07:47;5.30;55.40
40636;DHT22;26642;55.766;37.828;2024-02-15T14:10:14;5.20;55.60
40636;DHT22;26642;55.766;37.828;2024-02-15T14:12:40;5.20;55.40
40636;DHT22;26642;55.766;37.828;2024-02-15T14:15:06;5.20;55.40
40636;DHT22;26642;55.766;37.828;2024-02-15T14:17:32;5.20;55.50
40636;DHT22;26642;55.766;37.828;2024-02-15T14:19:58;5.20;55.30
40636;DHT22;26642;55.766;37.828;2024-02-15T14:22:26;5.10;55.50
40636;DHT22;26642;55.766;37.828;2024-02-15T14:24:55;5.10;55.40
40636;DHT22;26642;55.766;37.828;2024-02-15T14:27:21;5.10;55.60
40636;DHT22;26642;55.766;37.828;2024-02-15T14:29:47;5.10;55.60
40636;DHT22;26642;55.766;37.828;2024-02-15T14:32:32;5.10;55.40
40636;DHT22;26642;55.766;37.828;2024-02-15T14:35:17;5.10;55.50
40636;DHT22;26642;55.766;37.828;2024-02-15T14:37:43;5.00;55.60
40636;DHT22;26642;55.766;37.828;2024-02-15T14:40:11;5.00;55.60
40636;DHT22;26642;55.766;37.828;2024-02-15T14:42:40;5.00;55.50
40636;DHT22;26642;55.766;37.828;2024-02-15T14:45:11;5.00;55.80
40636;DHT22;26642;55.766;37.828;2024-02-15T14:47:37;5.00;55.80
40636;DHT22;26642;55.766;37.828;2024-02-15T14:50:04;5.00;56.00
40636;DHT22;26642;55.766;37.828;2024-02-15T14:52:37;5.00;55.70
40636;DHT22;26642;55.766;37.828;2024-02-15T14:55:06;5.00;56.10
40636;DHT22;26642;55.766;37.828;2024-02-15T14:57:34;4.90;56.00
40636;DHT22;26642;55.766;37.828;2024-02-15T15:00:01;4.90;56.40
40636;DHT22;26642;55.766;37.828;2024-02-15T15:02:27;4.90;56.20
40636;DHT22;26642;55.766;37.828;2024-02-15T15:04:53;4.90;56.20
40636;DHT22;26642;55.766;37.828;2024-02-15T15:07:38;4.90;56.10
40636;DHT22;26642;55.766;37.828;2024-02-15T15:10:23;4.90;56.50
40636;DHT22;26642;55.766;37.828;2024-02-15T15:13:07;4.80;56.30
40636;DHT22;26642;55.766;37.828;2024-02-15T15:15:35;4.80;56.20
40636;DHT22;26642;55.766;37.828;2024-02-15T15:18:03;4.80;56.50
40636;DHT22;26642;55.766;37.828;2024-02-15T15:20:30;4.80;56.50
40636;DHT22;26642;55.766;37.828;2024-02-15T15:22:59;4.80;56.70
40636;DHT22;26642;55.766;37.828;2024-02-15T15:25:26;4.80;57.00
40636;DHT22;26642;55.766;37.828;2024-02-15T15:27:54;4.80;57.10
40636;DHT22;26642;55.766;37.828;2024-02-15T15:30:22;4.70;57.30
40636;DHT22;26642;55.766;37.828;2024-02-15T15:32:49;4.70;57.50
40636;DHT22;26642;55.766;37.828;2024-02-15T15:35:16;4.70;57.80
40636;DHT22;26642;55.766;37.828;2024-02-15T15:37:44;4.70;58.20
40636;DHT22;26642;55.766;37.828;2024-02-15T15:40:12;4.70;58.40
40636;DHT22;26642;55.766;37.828;2024-02-15T15:42:41;4.70;58.60
40636;DHT22;26642;55.766;37.828;2024-02-15T15:45:08;4.70;58.80
40636;DHT22;26642;55.766;37.828;2024-02-15T15:47:35;4.70;58.90
40636;DHT22;26642;55.766;37.828;2024-02-15T15:50:01;4.70;58.70
40636;DHT22;26642;55.766;37.828;2024-02-15T15:52:30;4.70;58.90
40636;DHT22;26642;55.766;37.828;2024-02-15T15:54:56;4.70;58.90
40636;DHT22;26642;55.766;37.828;2024-02-15T15:57:22;4.70;59.00
40636;DHT22;26642;55.766;37.828;2024-02-15T15:59:50;4.70;59.30